Time;durP1;ratioP1;P1;durP2;ratioP2;P2;SDS_P1;SDS_P2;PMS_P1;PMS_P2;Temp;Humidity;BMP_temperature;BMP_pressure;BME280_temperature;BME280_humidity;BME280_pressure;Samples;Min_cycle;Max_cycle;Signal;HPM_P1;HPM_P2
2023/11/04 00:02:05;;;;;;;2.50;0.70;;;11.30;99.90;;;;;;4973631;28;20183;-76
2023/11/04 00:04:32;;;;;;;1.60;0.60;;;11.30;99.90;;;;;;4960727;28;20528;-76
2023/11/04 00:07:00;;;;;;;1.30;0.60;;;11.20;99.90;;;;;;4972980;28;20610;-76
2023/11/04 00:09:26;;;;;;;3.28;0.70;;;11.20;99.90;;;;;;4971834;28;20267;-76
2023/11/04 00:11:52;;;;;;;1.50;0.60;;;11.10;99.90;;;;;;4970326;28;20290;-76
2023/11/04 00:14:18;;;;;;;3.75;0.60;;;11.10;99.90;;;;;;4967061;28;20211;-76
2023/11/04 00:16:44;;;;;;;1.30;0.60;;;11.00;99.90;;;;;;4968695;28;20817;-76
2023/11/04 00:19:10;;;;;;;2.40;0.80;;;10.90;99.90;;;;;;4973009;28;20524;-76
2023/11/04 00:21:41;;;;;;;1.90;0.90;;;10.90;99.90;;;;;;4962681;28;20222;-76
2023/11/04 00:24:08;;;;;;;1.50;0.60;;;10.80;99.90;;;;;;4966303;28;20203;-76
2023/11/04 00:26:34;;;;;;;1.50;0.60;;;10.80;99.90;;;;;;4963409;28;20215;-76
2023/11/04 00:29:00;;;;;;;3.00;0.70;;;10.80;99.90;;;;;;4955261;28;20222;-76
2023/11/04 00:31:27;;;;;;;1.60;0.70;;;10.70;99.90;;;;;;4971537;28;20266;-76
2023/11/04 00:33:53;;;;;;;1.35;0.60;;;10.70;99.90;;;;;;4955367;28;20624;-76
2023/11/04 00:36:19;;;;;;;3.57;1.00;;;10.60;99.90;;;;;;4971466;28;20172;-76
2023/11/04 00:38:45;;;;;;;1.90;0.60;;;10.60;99.90;;;;;;4955006;28;20190;-76
2023/11/04 00:41:10;;;;;;;1.50;0.63;;;10.60;99.90;;;;;;4973066;28;20264;-76
2023/11/04 00:43:36;;;;;;;1.87;0.70;;;10.60;99.90;;;;;;4972307;28;20617;-76
2023/11/04 00:46:02;;;;;;;1.40;0.50;;;10.60;99.90;;;;;;4963677;28;20242;-76
2023/11/04 00:48:28;;;;;;;1.30;0.50;;;10.60;99.90;;;;;;4972426;28;20230;-76
2023/11/04 00:50:55;;;;;;;1.20;0.60;;;10.60;99.90;;;;;;4972428;28;20183;-76
2023/11/04 00:53:20;;;;;;;1.27;0.40;;;10.60;99.90;;;;;;4971373;28;20218;-75
2023/11/04 00:55:46;;;;;;;1.40;0.50;;;10.60;99.90;;;;;;4972201;28;20207;-76
2023/11/04 00:58:12;;;;;;;2.00;0.50;;;10.60;99.90;;;;;;4972319;28;20521;-76
2023/11/04 01:00:39;;;;;;;1.20;0.50;;;10.70;99.90;;;;;;4971050;28;20211;-76
2023/11/04 01:03:05;;;;;;;1.20;0.40;;;10.70;99.90;;;;;;4965110;28;20183;-76
2023/11/04 01:05:32;;;;;;;3.05;0.60;;;10.70;99.90;;;;;;4972253;28;20700;-76
2023/11/04 01:07:59;;;;;;;1.27;0.50;;;10.80;99.90;;;;;;4972248;28;20179;-76
2023/11/04 01:10:25;;;;;;;1.30;0.50;;;10.80;99.90;;;;;;4970856;28;20184;-77
2023/11/04 01:12:50;;;;;;;1.20;0.50;;;10.80;99.90;;;;;;4972271;28;20286;-76
2023/11/04 01:15:16;;;;;;;1.50;0.80;;;10.80;99.90;;;;;;4971147;28;20235;-76
2023/11/04 01:17:42;;;;;;;1.30;0.50;;;10.80;99.90;;;;;;4972582;28;20179;-76
2023/11/04 01:20:08;;;;;;;1.93;0.50;;;10.80;99.90;;;;;;4950833;29;20185;-76
2023/11/04 01:22:34;;;;;;;2.50;0.50;;;10.90;99.90;;;;;;4952487;28;20180;-77
2023/11/04 01:25:01;;;;;;;1.20;0.50;;;10.90;99.90;;;;;;4970999;28;20247;-77
2023/11/04 01:27:26;;;;;;;1.20;0.50;;;10.90;99.90;;;;;;4972664;28;20270;-76
2023/11/04 01:29:52;;;;;;;1.30;0.50;;;10.90;99.90;;;;;;4954783;28;20559;-76
2023/11/04 01:32:18;;;;;;;1.67;0.53;;;10.90;99.90;;;;;;4972260;28;20206;-76
2023/11/04 01:34:44;;;;;;;1.30;0.50;;;10.90;99.90;;;;;;4973807;28;20217;-75
2023/11/04 01:37:10;;;;;;;1.30;0.40;;;10.90;99.90;;;;;;4975090;28;20644;-76
2023/11/04 01:39:36;;;;;;;1.13;0.40;;;10.90;99.90;;;;;;4974808;28;20591;-76
2023/11/04 01:42:08;;;;;;;1.47;0.40;;;10.90;99.90;;;;;;4959008;28;20602;-75
2023/11/04 01:44:33;;;;;;;2.10;0.50;;;10.80;99.90;;;;;;4975929;28;20677;-76
2023/11/04 01:47:03;;;;;;;1.30;0.50;;;10.80;99.90;;;;;;4974554;28;20263;-76
2023/11/04 01:49:29;;;;;;;1.20;0.47;;;10.80;99.90;;;;;;4961124;28;20191;-76
2023/11/04 01:51:56;;;;;;;1.27;0.47;;;10.80;99.90;;;;;;4978980;28;20268;-76
2023/11/04 01:54:23;;;;;;;1.40;0.50;;;10.80;99.90;;;;;;4981470;28;20638;-76
2023/11/04 01:56:49;;;;;;;1.30;0.50;;;10.80;99.90;;;;;;4981926;28;20270;-77
2023/11/04 01:59:15;;;;;;;1.20;0.50;;;10.80;99.90;;;;;;4966818;28;20179;-76
2023/11/04 02:01:45;;;;;;;1.30;0.50;;;10.70;99.90;;;;;;4969879;28;21287;-76
2023/11/04 02:04:12;;;;;;;1.20;0.50;;;10.70;99.90;;;;;;4957939;28;20199;-76
2023/11/04 02:06:38;;;;;;;1.52;0.50;;;10.70;99.90;;;;;;4982815;28;20188;-76
2023/11/04 02:09:04;;;;;;;1.30;0.50;;;10.70;99.90;;;;;;4960290;28;20433;-76
2023/11/04 02:11:30;;;;;;;1.23;0.50;;;10.70;99.90;;;;;;4978079;28;20725;-77
2023/11/04 02:13:56;;;;;;;1.38;0.60;;;10.70;99.90;;;;;;4979730;28;20544;-75
2023/11/04 02:16:22;;;;;;;1.50;0.50;;;10.60;99.90;;;;;;4976891;28;20176;-76
2023/11/04 02:18:48;;;;;;;1.38;0.50;;;10.60;99.90;;;;;;4961680;28;20175;-76
2023/11/04 02:21:15;;;;;;;2.20;1.63;;;10.60;99.90;;;;;;4964925;28;20172;-76
2023/11/04 02:23:41;;;;;;;1.10;0.40;;;10.60;99.90;;;;;;4983274;28;20599;-75
2023/11/04 02:26:06;;;;;;;1.40;0.50;;;10.60;99.90;;;;;;4964049;28;20721;-77
2023/11/04 02:28:32;;;;;;;1.50;0.60;;;10.60;99.90;;;;;;4957693;28;20711;-76
2023/11/04 02:30:58;;;;;;;1.10;0.40;;;10.60;99.90;;;;;;4973436;28;20199;-76
2023/11/04 02:33:24;;;;;;;3.10;0.60;;;10.70;99.90;;;;;;4973712;28;20257;-77
2023/11/04 02:35:51;;;;;;;2.20;0.50;;;10.70;99.90;;;;;;4973303;28;20730;-76
2023/11/04 02:38:17;;;;;;;4.05;0.50;;;10.70;99.90;;;;;;4973656;28;20531;-76
2023/11/04 02:40:43;;;;;;;1.20;0.40;;;10.70;99.90;;;;;;4957459;28;20195;-76
2023/11/04 02:43:08;;;;;;;1.50;0.50;;;10.70;99.90;;;;;;4972318;28;20171;-76
2023/11/04 02:45:34;;;;;;;1.40;0.50;;;10.70;99.90;;;;;;4956771;28;20239;-76
2023/11/04 02:48:01;;;;;;;1.30;0.50;;;10.70;99.90;;;;;;4973358;28;20242;-76
2023/11/04 02:50:27;;;;;;;1.75;0.50;;;10.70;99.90;;;;;;4973178;28;20195;-76
2023/11/04 02:52:53;;;;;;;1.10;0.43;;;10.70;99.90;;;;;;4973255;28;20289;-76
2023/11/04 02:55:18;;;;;;;1.40;0.47;;;10.70;99.90;;;;;;4956927;28;20247;-76
2023/11/04 02:57:44;;;;;;;1.20;0.50;;;10.70;99.90;;;;;;4973228;28;20176;-76
2023/11/04 03:00:11;;;;;;;1.30;0.53;;;10.70;99.90;;;;;;4950184;28;21160;-76
2023/11/04 03:02:37;;;;;;;1.20;0.50;;;10.70;99.90;;;;;;4953905;28;20180;-76
2023/11/04 03:05:04;;;;;;;1.20;0.50;;;10.70;99.90;;;;;;4957712;28;20195;-76
2023/11/04 03:07:30;;;;;;;1.30;0.57;;;10.70;99.90;;;;;;4940986;28;20179;-76
2023/11/04 03:09:56;;;;;;;1.30;0.50;;;10.80;99.90;;;;;;4964866;28;20194;-76
2023/11/04 03:12:22;;;;;;;1.37;0.50;;;10.80;99.90;;;;;;4921931;29;20204;-76
2023/11/04 03:14:47;;;;;;;1.30;0.40;;;10.90;99.90;;;;;;4945467;28;20524;-76
2023/11/04 03:17:14;;;;;;;1.20;0.50;;;10.80;99.90;;;;;;4962914;28;20180;-76
2023/11/04 03:19:43;;;;;;;1.80;0.50;;;10.90;99.90;;;;;;4961906;28;20653;-76
2023/11/04 03:22:09;;;;;;;1.73;0.60;;;10.90;99.90;;;;;;4954979;28;20196;-76
2023/11/04 03:24:34;;;;;;;1.50;0.50;;;10.80;99.90;;;;;;4968676;28;20251;-76
2023/11/04 03:27:00;;;;;;;1.30;0.50;;;10.80;99.90;;;;;;4941084;28;20191;-76
2023/11/04 03:29:26;;;;;;;1.30;0.52;;;10.90;99.90;;;;;;4956684;28;20227;-76
2023/11/04 03:31:52;;;;;;;2.10;0.60;;;10.90;99.90;;;;;;4957019;28;20207;-76
2023/11/04 03:34:17;;;;;;;1.60;0.50;;;10.90;99.90;;;;;;4971700;28;20198;-76
2023/11/04 03:36:43;;;;;;;2.13;0.40;;;10.90;99.90;;;;;;4961385;28;20208;-76
2023/11/04 03:39:09;;;;;;;2.07;0.60;;;10.90;99.90;;;;;;4965775;28;20569;-76
2023/11/04 03:41:34;;;;;;;1.20;0.40;;;11.00;99.90;;;;;;4973823;28;20180;-76
2023/11/04 03:44:00;;;;;;;1.10;0.40;;;11.00;99.90;;;;;;4972280;28;20199;-76
2023/11/04 03:46:26;;;;;;;1.20;0.50;;;11.00;99.90;;;;;;4972298;28;20215;-76
2023/11/04 03:48:52;;;;;;;1.63;0.50;;;11.10;99.90;;;;;;4973261;28;20254;-76
2023/11/04 03:51:18;;;;;;;1.20;0.50;;;11.10;99.90;;;;;;4972255;28;20226;-76
2023/11/04 03:53:43;;;;;;;1.40;0.47;;;11.10;99.90;;;;;;4972509;28;20604;-76
2023/11/04 03:56:09;;;;;;;1.87;0.50;;;11.10;99.90;;;;;;4972630;28;20716;-76
2023/11/04 03:58:35;;;;;;;1.40;0.60;;;11.20;99.90;;;;;;4971958;28;20184;-76
2023/11/04 04:01:03;;;;;;;1.65;0.60;;;11.20;99.90;;;;;;4973190;28;20187;-76
2023/11/04 04:03:28;;;;;;;2.20;0.55;;;11.10;99.90;;;;;;4959713;28;20204;-75
2023/11/04 04:05:54;;;;;;;2.27;0.70;;;11.20;99.90;;;;;;4971521;28;20207;-76
2023/11/04 04:08:20;;;;;;;1.33;0.50;;;11.20;99.90;;;;;;4971742;28;20194;-76
2023/11/04 04:10:45;;;;;;;1.30;0.50;;;11.10;99.90;;;;;;4973198;28;20254;-76
2023/11/04 04:13:11;;;;;;;1.97;0.40;;;11.10;99.90;;;;;;4973078;28;20685;-76
2023/11/04 04:15:37;;;;;;;2.30;0.63;;;11.10;99.90;;;;;;4965196;28;20203;-76
2023/11/04 04:18:02;;;;;;;1.23;0.50;;;11.10;99.90;;;;;;4964923;28;20196;-76
2023/11/04 04:20:29;;;;;;;1.30;0.50;;;11.00;99.90;;;;;;4967239;28;20180;-75
2023/11/04 04:22:55;;;;;;;1.75;0.50;;;11.00;99.90;;;;;;4970865;28;20198;-76
2023/11/04 04:25:20;;;;;;;1.30;0.50;;;11.00;99.90;;;;;;4955774;28;20299;-76
2023/11/04 04:27:46;;;;;;;1.30;0.40;;;10.90;99.90;;;;;;4973146;28;20274;-76
2023/11/04 04:30:12;;;;;;;3.00;0.50;;;10.90;99.90;;;;;;4964918;28;20214;-76
2023/11/04 04:32:38;;;;;;;5.33;1.03;;;10.90;99.90;;;;;;4971943;28;20211;-77
2023/11/04 04:35:04;;;;;;;1.20;0.47;;;10.80;99.90;;;;;;4976950;28;20207;-76
2023/11/04 04:37:29;;;;;;;1.93;0.60;;;10.90;99.90;;;;;;4971746;28;20690;-76
2023/11/04 04:39:56;;;;;;;1.30;0.50;;;10.80;99.90;;;;;;4971325;28;20645;-76
2023/11/04 04:42:22;;;;;;;2.25;0.50;;;10.80;99.90;;;;;;4951769;28;20634;-76
2023/11/04 04:44:47;;;;;;;2.57;0.50;;;10.80;99.90;;;;;;4971496;28;20207;-76
2023/11/04 04:47:13;;;;;;;1.57;0.53;;;10.80;99.90;;;;;;4969185;28;21238;-76
2023/11/04 04:49:39;;;;;;;1.90;0.60;;;10.70;99.90;;;;;;4963358;28;20190;-76
2023/11/04 04:52:05;;;;;;;1.47;0.50;;;10.70;99.90;;;;;;4959970;28;20774;-76
2023/11/04 04:54:31;;;;;;;2.00;1.10;;;10.70;99.90;;;;;;4965430;28;21067;-76
2023/11/04 04:56:56;;;;;;;1.33;0.60;;;10.70;99.90;;;;;;4971375;28;20591;-76
2023/11/04 04:59:22;;;;;;;2.23;0.60;;;10.70;99.90;;;;;;4972253;28;20583;-76
2023/11/04 05:01:48;;;;;;;1.30;0.60;;;10.70;99.90;;;;;;4972670;28;20683;-76
2023/11/04 05:04:14;;;;;;;1.43;0.60;;;10.70;99.90;;;;;;4972348;28;20207;-76
2023/11/04 05:06:40;;;;;;;1.53;0.80;;;10.70;99.90;;;;;;4970996;28;20250;-75
2023/11/04 05:09:06;;;;;;;1.50;0.50;;;10.80;99.90;;;;;;4971991;28;20917;-76
2023/11/04 05:11:32;;;;;;;1.80;0.50;;;10.80;99.90;;;;;;4970969;28;20223;-76
2023/11/04 05:13:58;;;;;;;1.57;0.50;;;10.80;99.90;;;;;;4972063;28;20202;-76
2023/11/04 05:16:23;;;;;;;4.43;0.70;;;10.80;99.90;;;;;;4972072;28;20649;-76
2023/11/04 05:18:50;;;;;;;1.33;0.50;;;10.80;99.90;;;;;;4971872;28;21219;-76
2023/11/04 05:21:16;;;;;;;1.52;0.60;;;10.80;99.90;;;;;;4970687;28;20179;-76
2023/11/04 05:23:45;;;;;;;4.00;0.50;;;10.80;99.90;;;;;;4972051;28;20664;-76
2023/11/04 05:26:13;;;;;;;2.10;0.50;;;10.80;99.90;;;;;;4972164;28;21044;-76
2023/11/04 05:28:40;;;;;;;1.95;0.70;;;10.80;99.90;;;;;;4970567;28;20266;-76
2023/11/04 05:31:10;;;;;;;1.40;0.70;;;10.80;99.90;;;;;;4971975;28;20218;-76
2023/11/04 05:33:36;;;;;;;1.30;0.55;;;10.70;99.90;;;;;;4970887;28;20186;-76
2023/11/04 05:36:02;;;;;;;1.27;0.50;;;10.80;99.90;;;;;;4971915;28;20684;-76
2023/11/04 05:38:28;;;;;;;1.20;0.40;;;10.70;99.90;;;;;;4971646;28;20183;-76
2023/11/04 05:40:54;;;;;;;3.00;0.60;;;10.70;99.90;;;;;;4970755;28;20306;-76
2023/11/04 05:43:20;;;;;;;1.20;0.50;;;10.70;99.90;;;;;;4972150;28;20180;-76
2023/11/04 05:45:49;;;;;;;1.20;0.47;;;10.70;99.90;;;;;;4970565;28;21015;-76
2023/11/04 05:48:15;;;;;;;1.30;0.52;;;10.70;99.90;;;;;;4970275;28;20665;-76
2023/11/04 05:50:41;;;;;;;1.43;0.50;;;10.70;99.90;;;;;;4971935;28;20179;-76
2023/11/04 05:53:06;;;;;;;1.80;0.50;;;10.70;99.90;;;;;;4970519;28;20203;-76
2023/11/04 05:55:32;;;;;;;1.20;0.50;;;10.70;99.90;;;;;;4971596;28;20616;-76
2023/11/04 05:57:58;;;;;;;1.20;0.40;;;10.60;99.90;;;;;;4971647;28;20179;-76
2023/11/04 06:00:24;;;;;;;1.40;0.50;;;10.70;99.90;;;;;;4970217;28;20187;-76
2023/11/04 06:02:50;;;;;;;1.27;0.47;;;10.70;99.90;;;;;;4971786;28;20211;-76
2023/11/04 06:05:16;;;;;;;1.60;0.50;;;10.70;99.90;;;;;;4971426;28;20227;-76
2023/11/04 06:07:42;;;;;;;1.52;0.50;;;10.70;99.90;;;;;;4970558;28;20210;-76
2023/11/04 06:10:08;;;;;;;1.70;0.70;;;10.70;99.90;;;;;;4970244;28;20585;-76
2023/11/04 06:12:37;;;;;;;1.47;0.57;;;10.70;99.90;;;;;;4970435;28;20235;-76
2023/11/04 06:15:03;;;;;;;1.75;0.57;;;10.70;99.90;;;;;;4970263;28;20702;-75
2023/11/04 06:17:30;;;;;;;2.05;0.50;;;10.70;99.90;;;;;;4972272;28;20191;-76
2023/11/04 06:19:57;;;;;;;1.20;0.40;;;10.70;99.90;;;;;;4969613;28;20178;-76
2023/11/04 06:22:23;;;;;;;1.50;0.50;;;10.70;99.90;;;;;;4975397;28;20187;-76
2023/11/04 06:24:49;;;;;;;1.30;0.60;;;10.80;99.90;;;;;;4973886;28;20859;-76
2023/11/04 06:27:15;;;;;;;1.30;0.50;;;10.80;99.90;;;;;;4973984;28;20179;-76
2023/11/04 06:29:41;;;;;;;1.33;0.50;;;10.90;99.90;;;;;;4973821;28;20194;-76
2023/11/04 06:32:07;;;;;;;1.50;0.60;;;11.00;99.90;;;;;;4975089;28;20199;-76
2023/11/04 06:34:34;;;;;;;2.53;0.50;;;11.00;99.90;;;;;;4973553;28;20697;-76
2023/11/04 06:37:02;;;;;;;2.13;0.50;;;11.10;99.90;;;;;;4975157;28;20575;-76
2023/11/04 06:39:28;;;;;;;1.20;0.50;;;11.10;99.90;;;;;;4973667;28;20176;-76
2023/11/04 06:41:53;;;;;;;1.53;0.50;;;11.20;99.90;;;;;;4974789;28;20230;-76
2023/11/04 06:44:19;;;;;;;1.50;0.50;;;11.20;99.90;;;;;;4974788;28;20689;-76
2023/11/04 06:46:54;;;;;;;1.33;0.60;;;11.30;99.90;;;;;;4974631;28;20207;-76
2023/11/04 06:49:20;;;;;;;2.42;0.50;;;11.30;99.90;;;;;;4974511;28;20183;-76
2023/11/04 06:51:46;;;;;;;1.30;0.50;;;11.40;99.90;;;;;;4974622;28;20257;-76
2023/11/04 06:54:12;;;;;;;1.40;0.60;;;11.40;99.90;;;;;;4974423;28;21001;-76
2023/11/04 06:56:38;;;;;;;1.30;0.53;;;11.40;99.90;;;;;;4974774;28;20667;-76
2023/11/04 06:59:04;;;;;;;3.30;0.60;;;11.50;99.90;;;;;;4974289;28;20611;-76
2023/11/04 07:01:30;;;;;;;3.05;0.50;;;11.50;99.90;;;;;;4970033;28;20184;-76
2023/11/04 07:03:56;;;;;;;1.60;0.50;;;11.50;99.90;;;;;;4971150;28;20175;-76
2023/11/04 07:06:22;;;;;;;1.43;0.50;;;11.50;99.90;;;;;;4973215;28;20970;-76
2023/11/04 07:08:48;;;;;;;2.33;0.50;;;11.40;99.90;;;;;;4972859;28;20530;-76
2023/11/04 07:11:14;;;;;;;1.30;0.60;;;11.40;99.90;;;;;;4974144;28;20179;-75
2023/11/04 07:13:41;;;;;;;1.50;0.57;;;11.40;99.90;;;;;;4973102;28;20176;-76
2023/11/04 07:16:09;;;;;;;2.15;0.70;;;11.40;99.90;;;;;;4972735;28;20194;-76
2023/11/04 07:18:35;;;;;;;2.58;0.65;;;11.50;99.90;;;;;;4972744;28;20176;-76
2023/11/04 07:21:02;;;;;;;1.77;0.70;;;11.50;99.90;;;;;;4972843;28;20171;-76
2023/11/04 07:23:28;;;;;;;3.53;0.60;;;11.50;99.90;;;;;;4972971;28;20203;-76
2023/11/04 07:25:54;;;;;;;1.87;0.70;;;11.40;99.90;;;;;;4966952;28;20707;-76
2023/11/04 07:28:22;;;;;;;3.60;0.65;;;11.40;99.90;;;;;;4944524;28;20172;-76
2023/11/04 07:30:49;;;;;;;1.30;0.60;;;11.40;99.90;;;;;;4954590;28;20172;-76
2023/11/04 07:33:15;;;;;;;1.50;0.60;;;11.50;99.90;;;;;;4961618;28;20208;-76
2023/11/04 07:35:40;;;;;;;1.30;0.50;;;11.50;99.90;;;;;;4968202;28;20203;-76
2023/11/04 07:38:08;;;;;;;1.60;0.60;;;11.50;99.90;;;;;;4973798;28;20266;-76
2023/11/04 07:40:34;;;;;;;2.17;0.68;;;11.60;99.90;;;;;;4973623;28;20522;-76
2023/11/04 07:43:01;;;;;;;2.60;0.88;;;11.60;99.90;;;;;;4973836;28;20187;-76
2023/11/04 07:45:27;;;;;;;1.75;0.70;;;11.70;99.90;;;;;;4972317;28;20203;-76
2023/11/04 07:47:53;;;;;;;1.40;0.70;;;11.70;99.90;;;;;;4973865;28;20180;-75
2023/11/04 07:50:19;;;;;;;1.50;0.60;;;11.70;99.90;;;;;;4973134;28;20640;-75
2023/11/04 07:52:45;;;;;;;1.60;1.00;;;11.80;99.90;;;;;;4965976;28;20648;-76
2023/11/04 07:55:11;;;;;;;1.70;0.80;;;11.70;99.90;;;;;;4952315;28;20742;-76
2023/11/04 07:57:38;;;;;;;1.40;0.68;;;11.70;99.90;;;;;;4952843;28;20575;-76
2023/11/04 08:00:08;;;;;;;3.45;0.70;;;11.80;99.90;;;;;;4962528;28;20543;-75
2023/11/04 08:02:37;;;;;;;1.67;0.80;;;11.80;99.90;;;;;;4970818;28;20179;-76
2023/11/04 08:05:04;;;;;;;1.40;0.70;;;11.80;99.90;;;;;;4969034;28;20203;-76
2023/11/04 08:07:31;;;;;;;2.03;0.90;;;11.90;99.90;;;;;;4948370;28;20188;-76
2023/11/04 08:09:58;;;;;;;1.60;0.60;;;12.00;99.90;;;;;;4961765;28;20584;-76
2023/11/04 08:12:24;;;;;;;1.35;0.60;;;12.10;99.90;;;;;;4960747;28;20204;-76
2023/11/04 08:14:50;;;;;;;4.23;0.80;;;12.10;99.90;;;;;;4966440;28;20191;-75
2023/11/04 08:17:16;;;;;;;1.38;0.60;;;12.10;99.90;;;;;;4959836;28;20176;-76
2023/11/04 08:19:42;;;;;;;1.90;0.75;;;12.10;99.90;;;;;;4955130;28;20529;-76
2023/11/04 08:22:09;;;;;;;2.50;0.60;;;12.00;99.90;;;;;;4948978;28;20258;-76
2023/11/04 08:24:36;;;;;;;2.25;0.88;;;12.00;99.90;;;;;;4953243;28;20545;-76
2023/11/04 08:27:02;;;;;;;1.60;0.70;;;12.00;99.90;;;;;;4946560;28;20204;-76
2023/11/04 08:29:29;;;;;;;2.45;1.00;;;12.00;99.90;;;;;;4953341;28;20176;-76
2023/11/04 08:31:55;;;;;;;1.50;0.70;;;12.00;99.90;;;;;;4953530;28;20207;-76
2023/11/04 08:34:21;;;;;;;2.58;0.80;;;11.90;99.90;;;;;;4950626;28;20243;-76
2023/11/04 08:36:47;;;;;;;2.80;0.70;;;12.00;99.90;;;;;;4952090;28;20180;-76
2023/11/04 08:39:14;;;;;;;1.58;0.82;;;12.10;99.90;;;;;;4962647;28;20204;-76
2023/11/04 08:41:40;;;;;;;1.83;0.73;;;12.10;99.90;;;;;;4965368;28;20230;-76
2023/11/04 08:44:05;;;;;;;2.20;0.97;;;12.20;99.90;;;;;;4956933;28;20180;-77
2023/11/04 08:46:31;;;;;;;1.60;0.87;;;12.30;99.90;;;;;;4962294;28;20264;-76
2023/11/04 08:48:57;;;;;;;1.53;0.83;;;12.30;99.90;;;;;;4960933;28;20176;-76
2023/11/04 08:51:22;;;;;;;1.47;0.80;;;12.30;99.90;;;;;;4955903;28;20181;-76
2023/11/04 08:53:48;;;;;;;1.67;0.77;;;12.30;99.90;;;;;;4952979;28;20203;-77
2023/11/04 08:56:14;;;;;;;1.60;0.73;;;12.30;99.90;;;;;;4961202;28;20271;-77
2023/11/04 08:58:42;;;;;;;1.50;0.80;;;12.30;99.90;;;;;;4970831;28;20222;-76
2023/11/04 09:01:09;;;;;;;1.65;0.60;;;12.40;99.90;;;;;;4972216;28;20584;-76
2023/11/04 09:03:35;;;;;;;1.75;0.70;;;12.40;99.90;;;;;;4970467;28;20548;-76
2023/11/04 09:06:01;;;;;;;3.08;0.90;;;12.40;99.90;;;;;;4968864;28;20234;-76
2023/11/04 09:08:27;;;;;;;2.00;0.70;;;12.40;99.90;;;;;;4970328;28;20180;-76
2023/11/04 09:10:55;;;;;;;2.33;0.80;;;12.50;99.90;;;;;;4972401;28;20234;-76
2023/11/04 09:13:23;;;;;;;2.20;1.02;;;12.60;99.90;;;;;;4972140;28;20207;-76
2023/11/04 09:15:49;;;;;;;1.93;0.70;;;12.60;99.90;;;;;;4971960;28;20199;-76
2023/11/04 09:18:15;;;;;;;1.70;0.70;;;12.70;99.90;;;;;;4971961;28;20575;-76
2023/11/04 09:20:40;;;;;;;1.73;0.63;;;12.80;99.90;;;;;;4970705;28;21156;-76
2023/11/04 09:23:06;;;;;;;2.23;0.70;;;12.90;99.90;;;;;;4972199;28;21133;-76
2023/11/04 09:25:32;;;;;;;3.30;1.10;;;12.90;99.90;;;;;;4970750;28;20199;-76
2023/11/04 09:27:58;;;;;;;2.27;0.70;;;13.00;99.90;;;;;;4971985;28;20553;-75
2023/11/04 09:30:26;;;;;;;3.10;0.80;;;13.10;99.90;;;;;;4971745;28;20591;-75
2023/11/04 09:32:52;;;;;;;1.60;0.80;;;13.30;99.90;;;;;;4970559;28;20238;-75
2023/11/04 09:35:18;;;;;;;2.53;0.80;;;13.40;99.90;;;;;;4971928;28;20699;-76
2023/11/04 09:37:44;;;;;;;1.90;1.00;;;13.60;99.90;;;;;;4970649;28;20234;-76
2023/11/04 09:40:12;;;;;;;2.40;0.77;;;13.80;99.90;;;;;;4970299;28;20183;-76
2023/11/04 09:42:38;;;;;;;1.60;0.90;;;13.80;99.90;;;;;;4972090;28;21156;-76
2023/11/04 09:45:04;;;;;;;3.50;0.80;;;13.90;99.90;;;;;;4969477;28;21031;-76
2023/11/04 09:47:31;;;;;;;2.70;0.97;;;13.80;99.90;;;;;;4954699;28;20595;-76
2023/11/04 09:49:57;;;;;;;2.47;0.80;;;13.90;99.90;;;;;;4965258;28;20675;-77
2023/11/04 09:52:24;;;;;;;3.37;1.47;;;14.10;99.90;;;;;;4962337;28;20746;-76
2023/11/04 09:54:50;;;;;;;6.70;0.97;;;14.30;99.90;;;;;;4970936;28;20718;-76
2023/11/04 09:57:16;;;;;;;2.47;0.80;;;14.40;99.90;;;;;;4959155;28;20686;-76
2023/11/04 09:59:42;;;;;;;1.40;0.70;;;14.40;99.90;;;;;;4973871;28;21165;-76
2023/11/04 10:02:11;;;;;;;3.93;0.80;;;14.40;99.90;;;;;;4975360;28;20621;-76
2023/11/04 10:04:38;;;;;;;2.57;0.83;;;14.30;99.90;;;;;;4957832;28;20615;-76
2023/11/04 10:07:05;;;;;;;3.27;0.73;;;14.30;99.90;;;;;;4975278;28;20689;-76
2023/11/04 10:09:31;;;;;;;3.67;0.93;;;14.20;99.90;;;;;;4974978;28;20565;-76
2023/11/04 10:11:58;;;;;;;3.60;0.60;;;14.20;99.90;;;;;;4973900;28;20642;-76
2023/11/04 10:14:24;;;;;;;3.47;0.80;;;14.30;99.90;;;;;;4973787;28;20642;-76
2023/11/04 10:16:50;;;;;;;2.93;0.80;;;14.40;99.90;;;;;;4975369;28;21364;-76
2023/11/04 10:19:17;;;;;;;2.40;0.70;;;14.40;99.90;;;;;;4975199;28;21047;-76
2023/11/04 10:21:44;;;;;;;3.77;0.70;;;14.50;99.90;;;;;;4975856;28;20634;-76
2023/11/04 10:24:10;;;;;;;3.27;0.80;;;14.50;99.90;;;;;;4973755;28;20618;-76
2023/11/04 10:26:36;;;;;;;1.87;0.60;;;14.50;99.90;;;;;;4975027;28;20583;-76
2023/11/04 10:29:03;;;;;;;3.53;1.17;;;14.50;99.90;;;;;;4973434;28;20591;-76
2023/11/04 10:31:30;;;;;;;2.60;0.67;;;14.50;99.90;;;;;;4973525;28;20587;-76
2023/11/04 10:34:00;;;;;;;3.17;0.70;;;14.40;99.90;;;;;;4974838;28;21069;-76
2023/11/04 10:36:27;;;;;;;2.00;0.60;;;14.30;99.90;;;;;;4974700;28;20590;-76
2023/11/04 10:38:57;;;;;;;3.30;0.70;;;14.30;99.90;;;;;;4974498;28;20586;-75
2023/11/04 10:41:33;;;;;;;3.30;0.60;;;14.20;99.90;;;;;;4974610;28;20981;-76
2023/11/04 10:44:10;;;;;;;3.40;1.10;;;14.10;99.90;;;;;;4973355;28;20710;-76
2023/11/04 10:46:49;;;;;;;2.23;0.73;;;14.00;99.90;;;;;;4974534;28;20587;-76
2023/11/04 10:49:45;;;;;;;2.00;0.80;;;13.90;99.90;;;;;;4974267;28;20590;-76
2023/11/04 10:52:13;;;;;;;5.60;1.03;;;13.70;99.90;;;;;;4966919;28;20624;-77
2023/11/04 10:54:54;;;;;;;2.40;1.23;;;13.80;99.90;;;;;;4972652;28;21036;-77
2023/11/04 10:58:07;;;;;;;5.87;1.73;;;13.70;99.90;;;;;;4973329;28;20630;-76
2023/11/04 11:00:35;;;;;;;2.70;0.80;;;13.50;99.90;;;;;;4933150;29;20684;-76
2023/11/04 11:03:02;;;;;;;2.40;0.93;;;13.50;99.90;;;;;;4975094;28;20944;-77
2023/11/04 11:05:29;;;;;;;3.13;0.80;;;13.50;99.90;;;;;;4974051;28;20622;-77
2023/11/04 11:07:57;;;;;;;2.50;1.00;;;13.40;99.90;;;;;;4972942;28;20598;-77
2023/11/04 11:10:33;;;;;;;3.35;1.20;;;13.30;99.90;;;;;;4974142;28;20589;-76
2023/11/04 11:13:10;;;;;;;2.22;1.00;;;13.20;99.90;;;;;;4972925;28;20230;-76
2023/11/04 11:15:37;;;;;;;4.95;1.00;;;13.00;99.90;;;;;;4972951;28;20203;-76
2023/11/04 11:18:04;;;;;;;2.33;0.80;;;12.90;99.90;;;;;;4967168;28;20504;-76
2023/11/04 11:20:33;;;;;;;5.75;1.90;;;12.60;99.90;;;;;;4971858;28;20184;-76
2023/11/04 11:23:03;;;;;;;6.80;2.25;;;12.50;99.90;;;;;;4972706;28;20274;-76
2023/11/04 11:25:29;;;;;;;3.05;1.83;;;12.30;99.90;;;;;;4964541;28;20235;-76
2023/11/04 11:27:55;;;;;;;4.30;1.85;;;12.30;99.90;;;;;;4972720;28;20215;-76
2023/11/04 11:30:21;;;;;;;5.37;1.67;;;12.10;99.90;;;;;;4973465;28;20227;-77
2023/11/04 11:32:47;;;;;;;2.30;1.00;;;12.00;99.90;;;;;;4974122;28;20203;-76
2023/11/04 11:35:13;;;;;;;3.10;1.00;;;11.90;99.90;;;;;;4956611;28;20611;-76
2023/11/04 11:37:40;;;;;;;2.07;0.90;;;11.80;99.90;;;;;;4972575;28;20262;-76
2023/11/04 11:40:12;;;;;;;2.45;0.80;;;11.70;99.90;;;;;;4973527;28;20184;-76
2023/11/04 11:42:39;;;;;;;2.50;1.05;;;11.60;99.90;;;;;;4973677;28;20242;-76
2023/11/04 11:45:09;;;;;;;3.03;0.95;;;11.60;99.90;;;;;;4972199;28;20275;-75
2023/11/04 11:47:35;;;;;;;5.25;1.10;;;11.50;99.90;;;;;;4973410;28;20175;-75
2023/11/04 11:50:00;;;;;;;4.00;1.83;;;11.50;99.90;;;;;;4970881;28;20199;-76
2023/11/04 11:52:26;;;;;;;4.77;1.40;;;11.40;99.90;;;;;;4970314;28;20207;-75
2023/11/04 11:54:52;;;;;;;3.85;1.00;;;11.40;99.90;;;;;;4970252;28;20230;-76
2023/11/04 11:57:20;;;;;;;3.90;1.17;;;11.40;99.90;;;;;;4972146;28;20176;-76
2023/11/04 11:59:46;;;;;;;2.42;0.90;;;11.40;99.90;;;;;;4971905;28;20587;-76
2023/11/04 12:02:12;;;;;;;2.30;1.10;;;11.30;99.90;;;;;;4972167;28;20183;-75
2023/11/04 12:04:38;;;;;;;4.97;1.50;;;11.30;99.90;;;;;;4955916;28;20619;-76
2023/11/04 12:07:05;;;;;;;3.60;1.30;;;11.20;99.90;;;;;;4964025;28;20200;-76
2023/11/04 12:09:31;;;;;;;2.63;1.02;;;11.20;99.90;;;;;;4957653;28;20207;-76
2023/11/04 12:11:57;;;;;;;2.90;1.00;;;11.20;99.90;;;;;;4967252;28;20207;-75
2023/11/04 12:14:24;;;;;;;4.63;1.20;;;11.30;99.90;;;;;;4972791;28;20192;-74
2023/11/04 12:16:49;;;;;;;1.80;1.00;;;11.20;99.90;;;;;;4967508;28;20631;-75
2023/11/04 12:19:15;;;;;;;2.00;1.07;;;11.20;99.90;;;;;;4963304;28;20180;-74
2023/11/04 12:21:41;;;;;;;1.80;0.87;;;11.20;99.90;;;;;;4964932;28;20230;-74
2023/11/04 12:24:08;;;;;;;3.30;1.23;;;11.30;99.90;;;;;;4958123;28;20259;-74
2023/11/04 12:26:34;;;;;;;5.95;1.20;;;11.30;99.90;;;;;;4971968;28;21026;-75
2023/11/04 12:29:00;;;;;;;6.37;1.30;;;11.30;99.90;;;;;;4961607;28;20208;-76
2023/11/04 12:31:30;;;;;;;2.97;1.00;;;11.30;99.90;;;;;;4962154;28;20180;-75
2023/11/04 12:33:56;;;;;;;2.72;1.00;;;11.30;99.90;;;;;;4969123;28;20172;-76
2023/11/04 12:36:23;;;;;;;2.83;1.10;;;11.40;99.90;;;;;;4965397;28;20235;-75
2023/11/04 12:38:49;;;;;;;3.22;1.20;;;11.30;99.90;;;;;;4972159;28;20182;-75
2023/11/04 12:41:16;;;;;;;3.20;1.07;;;11.30;99.90;;;;;;4956960;28;20642;-76
2023/11/04 12:43:43;;;;;;;3.15;1.05;;;11.40;99.90;;;;;;4943900;28;20646;-76
2023/11/04 12:46:10;;;;;;;3.58;1.35;;;11.40;99.90;;;;;;4945888;28;20287;-76